Time;durP1;ratioP1;P1;durP2;ratioP2;P2;SDS_P1;SDS_P2;PMS_P1;PMS_P2;Temp;Humidity;BMP_temperature;BMP_pressure;BME280_temperature;BME280_humidity;BME280_pressure;Samples;Min_cycle;Max_cycle;Signal;HPM_P1;HPM_P2
2022/06/28 00:02:06;;;;;;;2.17;0.52;;;20.50;61.60;;;;;;6188364;23;20007;-71
2022/06/28 00:04:32;;;;;;;1.48;0.70;;;20.50;61.70;;;;;;6214555;23;20075;-71
2022/06/28 00:06:57;;;;;;;2.78;0.70;;;20.50;61.60;;;;;;6214525;23;20477;-71
2022/06/28 00:09:23;;;;;;;3.20;0.90;;;20.50;61.70;;;;;;6188113;23;20076;-71
2022/06/28 00:11:49;;;;;;;2.90;0.50;;;20.40;61.70;;;;;;6187792;23;20000;-71
2022/06/28 00:16:59;;;;;;;2.70;0.40;;;20.40;61.80;;;;;;6170690;23;20020;-71
2022/06/28 00:19:24;;;;;;;3.80;0.80;;;20.40;61.80;;;;;;6214467;23;20005;-71
2022/06/28 00:21:50;;;;;;;2.03;0.73;;;20.40;62.00;;;;;;6188102;23;20349;-71
2022/06/28 00:24:16;;;;;;;2.25;0.40;;;20.40;61.80;;;;;;6163390;23;20001;-71
2022/06/28 00:26:42;;;;;;;2.20;0.57;;;20.40;62.00;;;;;;6163337;23;20001;-71
2022/06/28 00:29:08;;;;;;;1.42;0.65;;;20.40;62.00;;;;;;6162881;23;20011;-71
2022/06/28 00:31:33;;;;;;;0.63;0.45;;;20.40;62.00;;;;;;6163172;23;20004;-71
2022/06/28 00:33:59;;;;;;;1.00;0.40;;;20.40;63.10;;;;;;6188179;23;20072;-71
2022/06/28 00:36:25;;;;;;;2.08;0.70;;;20.40;62.10;;;;;;6214001;23;20016;-71
2022/06/28 00:38:50;;;;;;;1.77;0.63;;;20.40;62.10;;;;;;6188068;23;20001;-71
2022/06/28 00:41:16;;;;;;;2.05;0.50;;;20.40;62.20;;;;;;6187917;23;20000;-71
2022/06/28 00:43:42;;;;;;;2.25;0.40;;;20.40;62.20;;;;;;6162894;23;20028;-71
2022/06/28 00:46:08;;;;;;;0.65;0.40;;;20.40;62.20;;;;;;6163230;23;20020;-71
2022/06/28 00:48:33;;;;;;;1.35;0.60;;;20.40;62.40;;;;;;6187940;23;20001;-71
2022/06/28 00:50:59;;;;;;;1.58;0.45;;;20.40;63.40;;;;;;6163138;23;20001;-71
2022/06/28 00:53:24;;;;;;;1.35;0.60;;;20.40;62.40;;;;;;6187870;23;19997;-71
2022/06/28 00:55:50;;;;;;;0.80;0.40;;;20.30;62.30;;;;;;6187843;23;20334;-71
2022/06/28 00:58:16;;;;;;;2.55;0.47;;;20.30;62.30;;;;;;6214023;23;20005;-71
2022/06/28 01:00:44;;;;;;;1.23;0.47;;;20.30;62.30;;;;;;6187917;23;20074;-71
2022/06/28 01:03:14;;;;;;;1.55;0.60;;;20.30;62.60;;;;;;6163428;23;20003;-71
2022/06/28 01:05:41;;;;;;;1.95;0.60;;;20.30;62.60;;;;;;6187477;23;20008;-71
2022/06/28 01:08:07;;;;;;;0.95;0.50;;;20.30;62.70;;;;;;6188045;23;20434;-71
2022/06/28 01:10:33;;;;;;;2.05;0.43;;;20.30;62.70;;;;;;6162964;23;20088;-71
2022/06/28 01:12:59;;;;;;;5.47;0.75;;;20.30;62.80;;;;;;6187645;23;20008;-71
2022/06/28 01:15:24;;;;;;;1.23;0.60;;;20.30;62.70;;;;;;6187987;23;20390;-71
2022/06/28 01:17:50;;;;;;;0.90;0.50;;;20.30;62.80;;;;;;6213922;23;20459;-71
2022/06/28 01:20:16;;;;;;;3.92;0.50;;;20.30;62.80;;;;;;6214235;23;19997;-71
2022/06/28 01:22:42;;;;;;;1.17;0.50;;;20.30;62.80;;;;;;6187952;23;20506;-71
2022/06/28 01:25:08;;;;;;;0.82;0.50;;;20.30;62.90;;;;;;6165155;23;20028;-71
2022/06/28 01:27:34;;;;;;;0.70;0.50;;;20.30;62.90;;;;;;6189189;23;20055;-71
2022/06/28 01:30:02;;;;;;;1.35;0.60;;;20.30;62.90;;;;;;6189845;23;20005;-71
2022/06/28 01:32:28;;;;;;;1.38;0.40;;;20.30;62.90;;;;;;6165226;23;20004;-71
2022/06/28 01:34:53;;;;;;;1.67;0.47;;;20.30;63.00;;;;;;6189659;23;20004;-71
2022/06/28 01:37:19;;;;;;;1.25;0.40;;;20.20;63.00;;;;;;6184373;23;20013;-71
2022/06/28 01:39:45;;;;;;;1.45;0.60;;;20.20;63.00;;;;;;6184160;23;20059;-71
2022/06/28 01:42:10;;;;;;;2.28;0.50;;;20.20;63.10;;;;;;6159611;23;20341;-71
2022/06/28 01:44:36;;;;;;;1.70;0.52;;;20.20;63.10;;;;;;6184333;23;20004;-71
2022/06/28 01:47:02;;;;;;;0.50;0.30;;;20.30;63.30;;;;;;6159771;23;20001;-71
2022/06/28 01:49:28;;;;;;;0.50;0.30;;;20.20;63.30;;;;;;6184634;23;20508;-71
2022/06/28 01:51:53;;;;;;;1.27;0.40;;;20.20;63.30;;;;;;6184229;23;20001;-71
2022/06/28 01:54:19;;;;;;;1.08;0.45;;;20.20;63.30;;;;;;6184435;23;20051;-71
2022/06/28 01:56:45;;;;;;;2.88;0.70;;;20.30;63.50;;;;;;6185360;23;20001;-71
2022/06/28 01:59:11;;;;;;;1.95;0.47;;;20.20;63.50;;;;;;6159686;23;20005;-71
2022/06/28 02:01:37;;;;;;;0.63;0.35;;;20.20;63.50;;;;;;6184058;23;20032;-71
2022/06/28 02:04:25;;;;;;;1.00;0.63;;;20.20;63.50;;;;;;6184504;23;20004;-71
2022/06/28 02:06:51;;;;;;;1.80;0.40;;;20.20;63.50;;;;;;6184539;23;20005;-71
2022/06/28 02:09:17;;;;;;;2.47;0.60;;;20.20;63.50;;;;;;6185954;23;20426;-71
2022/06/28 02:11:42;;;;;;;0.40;0.30;;;20.20;63.60;;;;;;6159096;23;20135;-71
2022/06/28 02:14:08;;;;;;;1.67;0.65;;;20.20;63.50;;;;;;6185594;23;19997;-71
2022/06/28 02:16:33;;;;;;;0.88;0.40;;;20.20;63.60;;;;;;6184072;23;20055;-71
2022/06/28 02:18:59;;;;;;;1.10;0.60;;;20.20;63.70;;;;;;6185462;23;20345;-71
2022/06/28 02:21:25;;;;;;;1.75;0.50;;;20.20;63.70;;;;;;6185747;23;20385;-71
2022/06/28 02:23:51;;;;;;;4.97;1.42;;;20.20;63.70;;;;;;6185113;23;20008;-71
2022/06/28 02:26:16;;;;;;;2.25;0.63;;;20.20;63.80;;;;;;6159411;23;20035;-71
2022/06/28 02:28:42;;;;;;;0.47;0.40;;;20.20;63.90;;;;;;6159377;23;20024;-71
2022/06/28 02:31:12;;;;;;;0.60;0.30;;;20.20;63.90;;;;;;6185309;23;20001;-71
2022/06/28 02:33:38;;;;;;;1.70;0.30;;;20.20;63.90;;;;;;6185571;23;20001;-71
2022/06/28 02:41:32;;;;;;;1.27;0.40;;;20.20;64.00;;;;;;6215970;23;20040;-71
2022/06/28 02:43:57;;;;;;;0.80;0.40;;;20.20;64.00;;;;;;6215237;23;19997;-71
2022/06/28 02:46:23;;;;;;;1.10;0.40;;;20.20;64.00;;;;;;6215460;23;20004;-71
2022/06/28 02:48:49;;;;;;;2.00;0.50;;;20.20;64.00;;;;;;6215270;23;20345;-71
2022/06/28 02:51:14;;;;;;;0.75;0.45;;;20.20;63.90;;;;;;6188965;23;20083;-71
2022/06/28 02:53:40;;;;;;;1.08;0.47;;;20.20;64.00;;;;;;6215023;23;20008;-71
2022/06/28 02:56:05;;;;;;;0.80;0.40;;;20.20;64.00;;;;;;6188705;23;20008;-71
2022/06/28 02:58:31;;;;;;;2.53;0.70;;;20.20;64.00;;;;;;6215233;23;20468;-71
2022/06/28 03:00:57;;;;;;;1.58;0.40;;;20.20;64.10;;;;;;6188677;23;20004;-71
2022/06/28 03:03:22;;;;;;;3.22;0.47;;;20.20;64.10;;;;;;6215321;23;20067;-71
2022/06/28 03:05:48;;;;;;;2.88;0.50;;;20.20;64.00;;;;;;6163684;23;20019;-71
2022/06/28 03:08:13;;;;;;;2.13;0.50;;;20.20;64.10;;;;;;6214965;23;20004;-71
2022/06/28 03:10:39;;;;;;;1.20;0.30;;;20.20;64.10;;;;;;6188919;23;20448;-71
2022/06/28 03:13:05;;;;;;;1.90;0.57;;;20.20;64.20;;;;;;6163967;23;20413;-71
2022/06/28 03:15:31;;;;;;;2.28;0.40;;;20.20;64.20;;;;;;6188669;23;20000;-71
2022/06/28 03:17:56;;;;;;;0.50;0.40;;;20.20;64.00;;;;;;6214842;23;20337;-71
2022/06/28 03:20:22;;;;;;;1.27;0.50;;;20.20;64.10;;;;;;6215087;23;20001;-71
2022/06/28 03:22:47;;;;;;;0.75;0.40;;;20.20;64.10;;;;;;6214870;23;20076;-71
2022/06/28 03:25:13;;;;;;;1.10;0.40;;;20.20;64.10;;;;;;6188598;23;20055;-71
2022/06/28 03:27:39;;;;;;;0.73;0.50;;;20.20;64.10;;;;;;6188489;23;20016;-71
2022/06/28 03:30:05;;;;;;;1.40;0.57;;;20.20;64.10;;;;;;6188721;23;20011;-71
2022/06/28 03:32:31;;;;;;;0.60;0.30;;;20.20;64.10;;;;;;6163754;23;20449;-71
2022/06/28 03:34:56;;;;;;;0.88;0.52;;;20.20;64.10;;;;;;6215194;23;20015;-71
2022/06/28 03:37:22;;;;;;;0.85;0.45;;;20.20;64.10;;;;;;6214517;23;20021;-71
2022/06/28 03:39:48;;;;;;;1.17;0.30;;;20.20;64.20;;;;;;6163525;23;20000;-71
2022/06/28 03:42:13;;;;;;;0.80;0.40;;;20.20;64.10;;;;;;6188329;23;20333;-71
2022/06/28 03:44:39;;;;;;;2.33;0.30;;;20.20;64.10;;;;;;6188458;23;20001;-71
2022/06/28 03:47:05;;;;;;;0.80;0.45;;;20.20;64.20;;;;;;6188202;23;20011;-71
2022/06/28 03:49:30;;;;;;;2.33;0.60;;;20.20;64.10;;;;;;6163695;23;20024;-71
2022/06/28 03:51:56;;;;;;;0.85;0.50;;;20.20;64.20;;;;;;6187880;23;20005;-71
2022/06/28 03:54:22;;;;;;;1.45;0.47;;;20.20;64.20;;;;;;6188263;23;20056;-71
2022/06/28 03:56:47;;;;;;;0.63;0.30;;;20.20;64.20;;;;;;6188141;23;20005;-71
2022/06/28 03:59:13;;;;;;;1.80;0.50;;;20.20;64.20;;;;;;6188129;23;20054;-71
2022/06/28 04:01:39;;;;;;;1.88;0.45;;;20.20;64.20;;;;;;6163445;23;20076;-71
2022/06/28 04:04:04;;;;;;;1.48;0.43;;;20.20;64.30;;;;;;6214747;23;20000;-71
2022/06/28 04:06:30;;;;;;;1.33;0.40;;;20.10;64.20;;;;;;6187877;23;20416;-71
2022/06/28 04:08:55;;;;;;;0.70;0.50;;;20.20;64.30;;;;;;6188035;23;20005;-71
2022/06/28 04:11:21;;;;;;;1.17;0.50;;;20.20;64.40;;;;;;6214840;23;20005;-71
2022/06/28 04:13:51;;;;;;;1.00;0.55;;;20.10;64.30;;;;;;6187936;23;20441;-71
2022/06/28 04:16:17;;;;;;;1.95;0.40;;;20.10;64.30;;;;;;6188334;23;20005;-71
2022/06/28 04:18:46;;;;;;;1.38;0.50;;;20.10;64.30;;;;;;6214695;23;20435;-71
2022/06/28 04:21:13;;;;;;;0.68;0.40;;;20.10;64.20;;;;;;6188376;23;20008;-71
2022/06/28 04:23:38;;;;;;;0.50;0.30;;;20.10;64.30;;;;;;6188494;23;20024;-71
2022/06/28 04:26:04;;;;;;;0.68;0.30;;;20.10;64.40;;;;;;6163384;23;20449;-71
2022/06/28 04:28:30;;;;;;;1.10;0.45;;;20.10;64.30;;;;;;6187953;23;20011;-71
2022/06/28 04:30:55;;;;;;;0.47;0.40;;;20.10;64.40;;;;;;6214286;23;20004;-71
2022/06/28 04:33:21;;;;;;;0.93;0.28;;;20.10;64.40;;;;;;6163439;23;20345;-71
2022/06/28 04:35:47;;;;;;;1.27;0.75;;;20.10;64.40;;;;;;6187607;23;20000;-71
2022/06/28 04:38:12;;;;;;;1.25;0.40;;;20.10;64.50;;;;;;6187918;23;20047;-71
2022/06/28 04:40:38;;;;;;;1.23;0.30;;;20.10;64.50;;;;;;6214495;23;20005;-71
2022/06/28 04:43:04;;;;;;;1.45;0.20;;;20.10;64.50;;;;;;6187761;23;20000;-71
2022/06/28 04:45:30;;;;;;;1.00;0.50;;;20.10;64.50;;;;;;6163227;23;19997;-71
2022/06/28 04:47:56;;;;;;;0.77;0.40;;;20.10;64.50;;;;;;6187877;23;20058;-71
2022/06/28 04:50:21;;;;;;;0.90;0.40;;;20.10;64.50;;;;;;6187760;23;20345;-71
2022/06/28 04:52:47;;;;;;;0.55;0.30;;;20.00;64.60;;;;;;6214431;23;20058;-71
2022/06/28 04:55:13;;;;;;;0.95;0.40;;;20.10;64.60;;;;;;6187768;23;20338;-71
2022/06/28 04:57:38;;;;;;;0.80;0.40;;;20.10;64.70;;;;;;6187950;23;20456;-71
2022/06/28 05:00:05;;;;;;;0.80;0.40;;;20.00;64.50;;;;;;6216408;23;20076;-71
2022/06/28 05:02:30;;;;;;;1.77;0.40;;;20.00;64.50;;;;;;6216243;23;20055;-71
2022/06/28 05:04:56;;;;;;;1.17;0.45;;;20.00;64.50;;;;;;6189462;23;19997;-71
2022/06/28 05:07:21;;;;;;;1.10;0.40;;;20.10;64.60;;;;;;6189981;23;20001;-71
2022/06/28 05:09:47;;;;;;;0.55;0.30;;;20.10;64.70;;;;;;6216214;23;20034;-71
2022/06/28 05:12:12;;;;;;;3.78;0.50;;;20.10;64.70;;;;;;6216124;23;20000;-71
2022/06/28 05:14:38;;;;;;;1.27;0.38;;;20.00;64.60;;;;;;6216334;23;20008;-71
2022/06/28 05:17:04;;;;;;;1.35;0.50;;;20.10;64.60;;;;;;6189528;23;20050;-71
2022/06/28 05:19:30;;;;;;;0.70;0.40;;;20.10;64.70;;;;;;6189584;23;20064;-71
2022/06/28 05:21:56;;;;;;;0.45;0.30;;;20.00;64.70;;;;;;6189756;23;20051;-71
2022/06/28 05:24:22;;;;;;;1.27;0.40;;;20.10;64.70;;;;;;6216196;23;19996;-71
2022/06/28 05:26:47;;;;;;;0.57;0.30;;;20.00;64.70;;;;;;6189682;23;20004;-71
2022/06/28 05:29:13;;;;;;;0.70;0.40;;;20.10;64.80;;;;;;6189380;23;20040;-71
2022/06/28 05:31:39;;;;;;;0.57;0.40;;;20.00;64.80;;;;;;6216225;23;20070;-71
2022/06/28 05:34:04;;;;;;;0.68;0.30;;;20.00;64.80;;;;;;6189306;23;20008;-71
2022/06/28 05:36:30;;;;;;;2.33;0.45;;;20.00;64.70;;;;;;6163803;23;20416;-71
2022/06/28 05:38:56;;;;;;;2.28;0.50;;;20.00;64.80;;;;;;6188569;23;20008;-71
2022/06/28 05:41:22;;;;;;;0.85;0.47;;;20.00;64.80;;;;;;6164385;23;20005;-71
2022/06/28 05:43:48;;;;;;;0.65;0.40;;;20.00;64.80;;;;;;6188868;23;20075;-71
2022/06/28 05:46:13;;;;;;;1.55;0.30;;;20.00;64.90;;;;;;6164365;23;20004;-71
2022/06/28 05:48:39;;;;;;;0.57;0.47;;;20.00;64.90;;;;;;6215260;23;20020;-71
2022/06/28 05:51:05;;;;;;;1.10;0.32;;;20.00;64.90;;;;;;6215278;23;20341;-71
2022/06/28 05:53:30;;;;;;;3.33;0.60;;;20.00;65.00;;;;;;6163453;23;20004;-71
2022/06/28 05:55:56;;;;;;;1.02;0.43;;;20.00;65.00;;;;;;6215257;23;19997;-71
2022/06/28 05:58:21;;;;;;;1.77;0.52;;;20.00;65.00;;;;;;6164210;23;20059;-71
2022/06/28 06:00:49;;;;;;;0.90;0.47;;;20.00;64.40;;;;;;6215371;23;20011;-71
2022/06/28 06:03:15;;;;;;;2.17;0.65;;;20.00;64.00;;;;;;6164459;23;20000;-70
2022/06/28 06:05:40;;;;;;;1.17;0.47;;;20.00;63.70;;;;;;6214830;23;20050;-70
2022/06/28 06:08:06;;;;;;;1.67;0.50;;;19.90;63.40;;;;;;6214375;23;20005;-70
2022/06/28 06:10:32;;;;;;;2.03;0.60;;;19.90;63.20;;;;;;6214476;23;20060;-70
2022/06/28 06:12:57;;;;;;;2.72;0.80;;;19.90;64.00;;;;;;6214890;23;20075;-70
2022/06/28 06:15:23;;;;;;;2.53;0.70;;;19.90;63.00;;;;;;6215005;23;20008;-71
2022/06/28 06:17:48;;;;;;;2.80;0.85;;;19.90;62.70;;;;;;6214603;23;20004;-71
2022/06/28 06:20:14;;;;;;;3.67;0.57;;;19.90;62.50;;;;;;6214763;23;20039;-71
2022/06/28 06:22:40;;;;;;;1.67;0.73;;;19.80;62.20;;;;;;6188118;23;20075;-71
2022/06/28 06:25:06;;;;;;;2.40;0.70;;;19.80;62.10;;;;;;6214933;23;20035;-71
2022/06/28 06:27:32;;;;;;;2.08;0.82;;;19.80;62.10;;;;;;6215351;23;20041;-71
2022/06/28 06:29:57;;;;;;;2.30;0.65;;;19.80;62.10;;;;;;6215146;23;20008;-71
2022/06/28 06:32:23;;;;;;;2.67;0.77;;;19.80;62.00;;;;;;6214879;23;20008;-71
2022/06/28 06:34:49;;;;;;;4.40;0.90;;;19.70;62.00;;;;;;6215254;23;20055;-71
2022/06/28 06:37:14;;;;;;;1.95;0.73;;;19.80;62.00;;;;;;6214595;23;20067;-71
2022/06/28 06:39:40;;;;;;;3.72;0.82;;;19.70;61.90;;;;;;6214947;23;20005;-71
2022/06/28 06:42:05;;;;;;;3.75;0.65;;;19.70;62.00;;;;;;6187298;23;20008;-71
2022/06/28 06:44:31;;;;;;;2.65;0.90;;;19.70;62.00;;;;;;6213768;23;20004;-71
2022/06/28 06:46:57;;;;;;;2.38;0.60;;;19.70;62.40;;;;;;6187503;23;20000;-71
2022/06/28 06:49:23;;;;;;;4.47;1.00;;;19.70;62.60;;;;;;6214237;23;20064;-71
2022/06/28 06:51:49;;;;;;;1.98;0.65;;;19.70;62.70;;;;;;6187849;23;20329;-71
2022/06/28 06:54:15;;;;;;;4.00;0.90;;;19.70;63.00;;;;;;6187745;23;20000;-71
2022/06/28 06:56:41;;;;;;;2.28;0.63;;;19.70;63.10;;;;;;6214224;23;20005;-71
2022/06/28 06:59:07;;;;;;;4.22;0.90;;;19.60;63.10;;;;;;6187604;23;20004;-71
2022/06/28 07:01:34;;;;;;;4.53;0.93;;;19.60;63.40;;;;;;6163895;23;20142;-71
2022/06/28 07:04:00;;;;;;;3.45;0.90;;;19.60;63.40;;;;;;6188856;23;20468;-71
2022/06/28 07:06:26;;;;;;;2.92;0.80;;;19.60;63.30;;;;;;6215063;23;20001;-71
2022/06/28 07:08:52;;;;;;;3.17;1.13;;;19.60;63.40;;;;;;6214087;23;20419;-71
2022/06/28 07:11:17;;;;;;;3.38;1.02;;;19.70;63.30;;;;;;6188341;23;20012;-73
2022/06/28 07:13:43;;;;;;;2.97;0.77;;;19.80;63.00;;;;;;6163936;23;20068;-72
2022/06/28 07:16:08;;;;;;;3.55;1.00;;;19.80;62.80;;;;;;6214857;23;20001;-69
2022/06/28 07:18:34;;;;;;;3.20;1.08;;;19.80;62.80;;;;;;6188441;23;20011;-69
2022/06/28 07:21:00;;;;;;;2.53;0.60;;;19.80;62.90;;;;;;6215012;23;20027;-69
2022/06/28 07:23:26;;;;;;;3.55;0.75;;;19.70;62.90;;;;;;6215182;23;20024;-69
2022/06/28 07:25:51;;;;;;;2.20;0.65;;;19.70;62.90;;;;;;6215163;23;20047;-69
2022/06/28 07:28:17;;;;;;;2.17;0.70;;;19.70;62.90;;;;;;6214822;23;20004;-69
2022/06/28 07:30:43;;;;;;;2.45;0.70;;;19.70;62.90;;;;;;6214844;23;20005;-69
2022/06/28 07:33:09;;;;;;;2.58;0.80;;;19.70;62.80;;;;;;6188510;23;20004;-69
2022/06/28 07:35:35;;;;;;;3.80;0.80;;;19.60;62.80;;;;;;6214890;23;20028;-69
2022/06/28 07:38:01;;;;;;;3.08;0.73;;;19.60;62.70;;;;;;6214654;23;20009;-69
2022/06/28 07:40:26;;;;;;;3.70;1.05;;;19.60;62.80;;;;;;6188417;23;20023;-69
2022/06/28 07:42:52;;;;;;;3.78;0.95;;;19.60;62.60;;;;;;6214673;23;20051;-69
2022/06/28 07:45:18;;;;;;;4.15;0.80;;;19.60;62.40;;;;;;6214849;23;20046;-69
2022/06/28 07:47:47;;;;;;;4.07;1.10;;;19.50;62.40;;;;;;6188466;23;20051;-69
2022/06/28 07:53:02;;;;;;;3.78;0.90;;;19.60;62.50;;;;;;6192188;23;20065;-69
2022/06/28 07:55:28;;;;;;;2.08;0.98;;;19.50;62.40;;;;;;6164003;23;20480;-69
2022/06/28 07:57:53;;;;;;;2.55;0.55;;;19.60;62.50;;;;;;6188037;23;20083;-69
2022/06/28 08:00:21;;;;;;;2.67;0.70;;;19.50;62.30;;;;;;6214431;23;19997;-69
2022/06/28 08:02:47;;;;;;;3.40;0.73;;;19.50;62.30;;;;;;6214857;23;20062;-69
2022/06/28 08:05:13;;;;;;;4.32;1.13;;;19.50;62.30;;;;;;6187968;23;20352;-69
2022/06/28 08:07:38;;;;;;;3.55;0.80;;;19.50;62.30;;;;;;6214705;23;20442;-69
2022/06/28 08:10:05;;;;;;;2.60;0.80;;;19.50;62.20;;;;;;6188184;23;20011;-69
2022/06/28 08:12:31;;;;;;;1.80;0.80;;;19.50;62.10;;;;;;6187766;23;20066;-69
2022/06/28 08:14:56;;;;;;;2.83;0.80;;;19.50;62.20;;;;;;6214671;23;20039;-69
2022/06/28 08:17:22;;;;;;;4.03;0.80;;;19.50;62.00;;;;;;6214489;23;20005;-69
2022/06/28 08:19:48;;;;;;;1.27;0.40;;;19.50;62.00;;;;;;6214515;23;20012;-69
2022/06/28 08:22:13;;;;;;;3.35;0.90;;;19.50;62.00;;;;;;6188036;23;20380;-69
2022/06/28 08:24:39;;;;;;;2.78;0.80;;;19.50;62.10;;;;;;6214600;23;19997;-69
2022/06/28 08:27:05;;;;;;;3.03;1.02;;;19.50;62.20;;;;;;6188044;23;20458;-69
2022/06/28 08:29:32;;;;;;;4.15;0.75;;;19.50;62.30;;;;;;6188030;23;20009;-69
2022/06/28 08:31:58;;;;;;;2.50;0.70;;;19.50;62.10;;;;;;6214489;23;20080;-69
2022/06/28 08:34:24;;;;;;;1.67;0.80;;;19.50;61.90;;;;;;6213994;23;20032;-69
2022/06/28 08:36:49;;;;;;;3.00;0.75;;;19.50;61.90;;;;;;6214285;23;20043;-69
2022/06/28 08:39:15;;;;;;;3.70;0.90;;;19.50;61.90;;;;;;6187862;23;20023;-69
2022/06/28 08:41:41;;;;;;;4.65;1.10;;;19.50;61.90;;;;;;6214399;23;20079;-69
2022/06/28 08:44:11;;;;;;;3.22;0.70;;;19.50;61.90;;;;;;6163400;23;20047;-69
2022/06/28 08:46:38;;;;;;;2.33;0.70;;;19.40;61.60;;;;;;6188811;23;20008;-69
2022/06/28 08:49:14;;;;;;;3.20;0.80;;;19.50;61.60;;;;;;6163444;23;20001;-69
2022/06/28 08:51:40;;;;;;;4.43;1.00;;;19.50;61.60;;;;;;6214475;23;20067;-69
2022/06/28 08:54:06;;;;;;;2.20;0.63;;;19.40;61.40;;;;;;6187964;23;20012;-69
2022/06/28 08:56:31;;;;;;;2.53;0.73;;;19.50;61.60;;;;;;6162907;23;20004;-69
2022/06/28 08:59:00;;;;;;;2.47;0.65;;;19.40;61.30;;;;;;6188069;23;20001;-69
2022/06/28 09:01:26;;;;;;;2.20;0.90;;;19.40;61.40;;;;;;6214527;23;20000;-69
2022/06/28 09:03:52;;;;;;;2.15;0.80;;;19.40;61.50;;;;;;6187915;23;20016;-69
2022/06/28 09:06:18;;;;;;;2.78;1.05;;;19.40;61.30;;;;;;6187875;23;19997;-69
2022/06/28 09:08:44;;;;;;;1.33;0.50;;;19.40;61.10;;;;;;6214545;23;19997;-69
2022/06/28 09:11:10;;;;;;;1.30;0.50;;;19.40;61.30;;;;;;6214082;23;20009;-69
2022/06/28 09:13:36;;;;;;;2.13;0.70;;;19.40;61.50;;;;;;6214369;23;19997;-69
2022/06/28 09:16:03;;;;;;;2.40;0.68;;;19.40;61.50;;;;;;6188075;23;20024;-69
2022/06/28 09:18:38;;;;;;;2.22;0.70;;;19.40;61.40;;;;;;6187576;23;20012;-69
2022/06/28 09:21:09;;;;;;;2.63;0.68;;;19.40;61.40;;;;;;6214649;23;20068;-69
2022/06/28 09:23:37;;;;;;;2.08;0.82;;;19.40;61.40;;;;;;6187749;23;20001;-69
2022/06/28 09:26:12;;;;;;;3.83;0.80;;;19.40;61.40;;;;;;6188029;23;19996;-69
2022/06/28 09:28:43;;;;;;;3.13;0.65;;;19.40;61.50;;;;;;6214320;23;20096;-69
2022/06/28 09:31:16;;;;;;;4.13;0.80;;;19.40;61.50;;;;;;6187617;23;20079;-69
2022/06/28 09:33:46;;;;;;;2.38;0.75;;;19.30;61.50;;;;;;6188623;23;20005;-69
2022/06/28 09:36:16;;;;;;;2.20;0.70;;;19.40;61.70;;;;;;6188472;23;20039;-69
2022/06/28 09:38:42;;;;;;;2.22;0.68;;;19.40;61.70;;;;;;6187787;23;20087;-69
2022/06/28 09:41:28;;;;;;;2.10;0.80;;;19.40;61.80;;;;;;6187638;23;20001;-69
2022/06/28 09:44:00;;;;;;;1.65;0.70;;;19.40;61.90;;;;;;6214731;23;20052;-69
2022/06/28 09:46:28;;;;;;;1.77;0.55;;;19.40;61.90;;;;;;6189520;23;20003;-69
2022/06/28 09:49:06;;;;;;;3.05;0.60;;;19.40;61.90;;;;;;6216167;23;20001;-69
2022/06/28 09:51:34;;;;;;;2.85;0.75;;;19.40;62.90;;;;;;6164740;23;20001;-69
2022/06/28 09:54:06;;;;;;;3.53;0.77;;;19.40;62.00;;;;;;6215797;23;20007;-69
2022/06/28 09:56:39;;;;;;;2.17;0.60;;;19.30;61.80;;;;;;6215621;23;20005;-69
2022/06/28 09:59:05;;;;;;;2.92;0.82;;;19.40;62.00;;;;;;6189718;23;20398;-69
2022/06/28 10:01:31;;;;;;;2.30;0.60;;;19.40;62.00;;;;;;6189609;23;20072;-69
2022/06/28 10:03:58;;;;;;;2.55;0.70;;;19.40;62.00;;;;;;6164921;23;20025;-69
2022/06/28 10:06:23;;;;;;;3.42;1.00;;;19.40;62.00;;;;;;6215703;23;19996;-69
2022/06/28 10:08:49;;;;;;;1.60;0.47;;;19.40;62.00;;;;;;6189252;23;20088;-69
2022/06/28 10:11:15;;;;;;;1.30;0.65;;;19.40;61.90;;;;;;6164515;23;20008;-69
2022/06/28 10:16:49;;;;;;;3.60;0.63;;;19.40;62.00;;;;;;6193402;23;20028;-69
2022/06/28 10:19:19;;;;;;;2.20;0.70;;;19.40;62.00;;;;;;6166109;23;20017;-69
2022/06/28 10:22:08;;;;;;;0.93;0.38;;;19.40;62.10;;;;;;6215658;23;20004;-69
2022/06/28 10:24:53;;;;;;;1.50;0.60;;;19.40;62.10;;;;;;6215483;23;20010;-69
2022/06/28 10:27:19;;;;;;;2.22;0.52;;;19.30;62.00;;;;;;6215615;23;20031;-69
2022/06/28 10:30:00;;;;;;;2.00;0.80;;;19.40;62.10;;;;;;6215846;23;20008;-69
2022/06/28 10:32:39;;;;;;;3.00;0.70;;;19.40;62.00;;;;;;6215610;23;20445;-69
2022/06/28 10:35:05;;;;;;;2.05;0.60;;;19.40;61.90;;;;;;6215252;23;20008;-69
2022/06/28 10:37:30;;;;;;;0.93;0.50;;;19.40;61.80;;;;;;6214845;23;20337;-69
2022/06/28 10:40:29;;;;;;;1.20;0.50;;;19.40;61.80;;;;;;6189268;23;20008;-69
2022/06/28 10:42:54;;;;;;;2.45;0.60;;;19.40;61.70;;;;;;6094396;23;20081;-69
2022/06/28 10:45:20;;;;;;;4.60;1.00;;;19.30;61.50;;;;;;6070794;23;20006;-69
2022/06/28 10:48:09;;;;;;;1.70;0.68;;;19.30;61.30;;;;;;6070327;23;20006;-69
2022/06/28 10:50:59;;;;;;;1.60;0.57;;;19.40;61.40;;;;;;6070285;23;20011;-69
2022/06/28 10:53:30;;;;;;;1.60;0.43;;;19.40;61.50;;;;;;6094149;23;20010;-69
2022/06/28 10:56:14;;;;;;;3.35;0.85;;;19.40;61.40;;;;;;6070571;23;20074;-69
2022/06/28 10:58:55;;;;;;;2.00;0.40;;;19.40;61.20;;;;;;6093959;23;20007;-69
2022/06/28 11:01:40;;;;;;;2.72;0.70;;;19.40;61.20;;;;;;6094058;23;20454;-69
2022/06/28 11:04:11;;;;;;;3.10;1.20;;;19.40;60.90;;;;;;6094289;23;20006;-69
2022/06/28 11:06:56;;;;;;;2.05;0.75;;;19.40;60.80;;;;;;6093755;23;20447;-69
2022/06/28 11:09:26;;;;;;;1.65;0.60;;;19.40;60.90;;;;;;6094317;23;20507;-69
2022/06/28 11:12:11;;;;;;;2.60;0.80;;;19.40;60.90;;;;;;6045727;23;20454;-69
2022/06/28 11:14:56;;;;;;;2.40;0.73;;;19.40;60.80;;;;;;6070075;23;20081;-69
2022/06/28 11:17:25;;;;;;;2.90;0.70;;;19.30;60.70;;;;;;6074299;23;20454;-69
2022/06/28 11:19:52;;;;;;;2.17;1.00;;;19.40;60.40;;;;;;6214939;23;20001;-69
2022/06/28 11:22:44;;;;;;;1.45;0.68;;;19.40;60.30;;;;;;6214966;23;20441;-69
2022/06/28 11:25:14;;;;;;;2.75;0.70;;;19.30;60.10;;;;;;6209731;23;20016;-69
2022/06/28 11:27:46;;;;;;;1.98;0.63;;;19.30;60.30;;;;;;6214800;23;20005;-69
2022/06/28 11:30:12;;;;;;;;;;;19.40;60.40;;;;;;6189173;23;20000;-69
2022/06/28 11:32:39;;;;;;;2.03;0.70;;;19.40;60.50;;;;;;6215045;23;19923;-69
2022/06/28 11:35:05;;;;;;;2.55;1.00;;;19.30;60.60;;;;;;6188105;23;20001;-69
2022/06/28 11:37:46;;;;;;;2.17;0.73;;;19.40;60.60;;;;;;6214703;23;20024;-69
2022/06/28 11:40:12;;;;;;;2.35;0.77;;;19.40;60.70;;;;;;6214869;23;20396;-69
2022/06/28 11:42:37;;;;;;;3.15;0.50;;;19.40;60.80;;;;;;6188323;23;20031;-69
2022/06/28 11:45:03;;;;;;;1.98;0.60;;;19.40;60.80;;;;;;6188331;23;20368;-69
2022/06/28 11:47:29;;;;;;;2.70;0.57;;;19.40;60.80;;;;;;6163608;23;20005;-69
2022/06/28 11:50:14;;;;;;;1.40;0.70;;;19.40;60.80;;;;;;6214565;23;20397;-69
2022/06/28 11:52:51;;;;;;;2.17;0.73;;;19.40;60.40;;;;;;6188302;23;20011;-69
2022/06/28 11:55:17;;;;;;;2.65;0.90;;;19.40;60.40;;;;;;6188664;23;20005;-69
2022/06/28 11:57:44;;;;;;;1.55;0.70;;;19.30;60.40;;;;;;6214449;23;20341;-69
2022/06/28 12:00:13;;;;;;;2.10;0.60;;;19.30;60.50;;;;;;6214721;23;20000;-69
2022/06/28 12:03:00;;;;;;;2.25;0.57;;;19.40;60.50;;;;;;6214601;23;20069;-69
2022/06/28 12:05:33;;;;;;;2.65;0.70;;;19.40;60.60;;;;;;6214558;23;20000;-69
2022/06/28 12:07:59;;;;;;;1.38;0.43;;;19.40;60.60;;;;;;6187740;23;20000;-69
2022/06/28 12:10:28;;;;;;;3.83;0.85;;;19.40;60.90;;;;;;6188274;23;20000;-69
2022/06/28 12:12:54;;;;;;;1.55;0.52;;;19.40;60.80;;;;;;6163969;23;20523;-69
2022/06/28 12:15:32;;;;;;;4.15;0.90;;;19.40;60.10;;;;;;6188137;23;20370;-69
2022/06/28 12:18:03;;;;;;;1.25;0.50;;;19.40;60.10;;;;;;6165276;23;20488;-69
2022/06/28 12:20:29;;;;;;;1.60;0.60;;;19.40;60.10;;;;;;6214123;23;20031;-69
2022/06/28 12:22:56;;;;;;;2.72;0.80;;;19.40;60.20;;;;;;6188062;23;20429;-69
2022/06/28 12:25:22;;;;;;;1.40;0.60;;;19.40;60.00;;;;;;6188213;23;20000;-69
2022/06/28 12:27:47;;;;;;;2.85;0.70;;;19.40;59.70;;;;;;6214513;23;20448;-69
2022/06/28 12:30:13;;;;;;;2.05;0.52;;;19.40;59.80;;;;;;6214566;23;20001;-69
2022/06/28 12:32:40;;;;;;;1.58;0.70;;;19.40;59.80;;;;;;6188103;23;20001;-69
2022/06/28 12:35:07;;;;;;;3.55;0.70;;;19.40;59.90;;;;;;6214243;23;20025;-69
2022/06/28 12:37:33;;;;;;;2.05;0.50;;;19.40;60.10;;;;;;6187923;23;20088;-69
2022/06/28 12:39:58;;;;;;;1.85;0.40;;;19.40;60.40;;;;;;6188340;23;20453;-69
2022/06/28 12:42:27;;;;;;;2.92;0.70;;;19.50;60.60;;;;;;6188035;23;20417;-69
2022/06/28 12:44:53;;;;;;;1.90;0.60;;;19.50;60.60;;;;;;6214561;23;20008;-69
2022/06/28 12:47:19;;;;;;;2.88;0.80;;;19.50;60.50;;;;;;6188629;23;20055;-69
2022/06/28 12:49:44;;;;;;;2.05;0.50;;;19.50;60.40;;;;;;6188157;23;20000;-69
2022/06/28 12:52:10;;;;;;;2.45;0.88;;;19.50;60.40;;;;;;6188276;23;20005;-69
2022/06/28 12:54:36;;;;;;;1.80;0.68;;;19.50;60.60;;;;;;6188323;23;20058;-69
2022/06/28 12:57:01;;;;;;;1.58;0.43;;;19.50;60.50;;;;;;6214326;23;20314;-69
2022/06/28 12:59:27;;;;;;;2.88;0.43;;;19.50;60.50;;;;;;6214542;23;19996;-69
2022/06/28 13:01:53;;;;;;;2.25;0.80;;;19.50;60.10;;;;;;6213868;23;19996;-69
2022/06/28 13:04:18;;;;;;;1.98;0.47;;;19.50;60.00;;;;;;6214566;23;20024;-69